createdAt,value
2022-08-22T00:00:19.345Z,100091.44
2022-08-22T00:02:42.672Z,100058.16
2022-08-22T00:02:58.605Z,100062.97
2022-08-22T00:03:16.175Z,100098.72
2022-08-22T00:06:12.042Z,100092.63
2022-08-22T00:08:47.123Z,100096.25
2022-08-22T00:11:16.788Z,100100.34
2022-08-22T00:13:43.415Z,100101.03
2022-08-22T00:19:12.254Z,100088.91
2022-08-22T00:21:51.700Z,100090.09
2022-08-22T00:24:27.733Z,100094.59
2022-08-22T00:27:23.601Z,100094.53
2022-08-22T00:30:03.288Z,100106.69
2022-08-22T00:32:38.772Z,100102.22
2022-08-22T00:35:20.752Z,100094.13
2022-08-22T00:37:56.801Z,100099.38
2022-08-22T00:41:05.696Z,100096.06
2022-08-22T00:44:04.705Z,100097.22
2022-08-22T00:46:56.311Z,100098.47
2022-08-22T00:49:56.998Z,100097.63
2022-08-22T00:52:26.486Z,100107.38
2022-08-22T00:55:08.604Z,100100.91
2022-08-22T00:57:54.523Z,100108.59
2022-08-22T01:00:29.952Z,100110.66
2022-08-22T01:03:32.182Z,100117.94
2022-08-22T01:06:13.829Z,100116.31
2022-08-22T01:09:31.846Z,100132.50
2022-08-22T01:12:30.200Z,100126.03
2022-08-22T01:15:05.699Z,100121.97
2022-08-22T01:17:47.448Z,100130.91
2022-08-22T01:20:45.200Z,100134.91
2022-08-22T01:23:36.298Z,100124.38
2022-08-22T01:26:10.249Z,100134.06
2022-08-22T01:29:03.410Z,100123.53
2022-08-22T01:31:56.372Z,100110.94
2022-08-22T01:34:32.727Z,100113.78
2022-08-22T01:37:16.022Z,100127.50
2022-08-22T01:40:13.862Z,100125.44
2022-08-22T01:42:55.460Z,100120.06
2022-08-22T01:45:41.299Z,100120.84
2022-08-22T01:48:17.173Z,100117.59
2022-08-22T01:51:03.700Z,100113.56
2022-08-22T01:53:51.027Z,100115.19
2022-08-22T01:56:23.056Z,100111.47
2022-08-22T01:59:13.966Z,100094.16
2022-08-22T02:02:02.895Z,100092.53
2022-08-22T02:04:41.472Z,100079.28
2022-08-22T02:07:31.732Z,100082.09
2022-08-22T02:10:05.170Z,100082.09
2022-08-22T02:12:41.506Z,100079.69
2022-08-22T02:15:14.433Z,100084.53
2022-08-22T02:18:12.295Z,100120.03
2022-08-22T02:20:48.140Z,100116.28
2022-08-22T02:23:23.810Z,100097.94
2022-08-22T02:26:02.683Z,100099.09
2022-08-22T02:28:40.381Z,100080.81
2022-08-22T02:31:49.348Z,100092.94
2022-08-22T02:34:31.491Z,100099.34
2022-08-22T02:37:06.956Z,100097.31
2022-08-22T02:39:42.388Z,100092.88
2022-08-22T02:42:18.099Z,100096.09
2022-08-22T02:45:26.497Z,100109.84
2022-08-22T02:47:57.004Z,100107.78
2022-08-22T02:50:36.199Z,100108.94
2022-08-22T02:53:16.497Z,100125.03
2022-08-22T02:55:56.486Z,100112.88
2022-08-22T02:58:39.833Z,100111.25
2022-08-22T03:01:16.317Z,100116.13
2022-08-22T03:03:47.359Z,100116.13
2022-08-22T03:06:34.928Z,100118.19
2022-08-22T03:09:16.688Z,100121.78
2022-08-22T03:11:49.542Z,100119.38
2022-08-22T03:14:27.146Z,100119.38
2022-08-22T03:17:06.120Z,100123.41
2022-08-22T03:20:00.620Z,100133.88
2022-08-22T03:22:49.051Z,100121.78
2022-08-22T03:25:36.841Z,100123.78
2022-08-22T03:28:26.427Z,100123.78
2022-08-22T03:31:07.203Z,100121.78
2022-08-22T03:33:34.078Z,100124.63
2022-08-22T03:36:07.176Z,100128.28
2022-08-22T03:38:34.304Z,100125.84
2022-08-22T03:41:07.201Z,100125.84
2022-08-22T03:43:58.188Z,100129.13
2022-08-22T03:46:52.978Z,100128.34
2022-08-22T03:49:38.589Z,100126.69
2022-08-22T03:52:11.196Z,100131.22
2022-08-22T03:54:55.972Z,100130.47
2022-08-22T03:57:58.353Z,100127.25
2022-08-22T04:00:34.480Z,100113.91
2022-08-22T04:03:46.650Z,100122.00
2022-08-22T04:06:48.310Z,100135.34
2022-08-22T04:09:30.193Z,100139.78
2022-08-22T04:12:22.454Z,100143.06
2022-08-22T04:15:07.542Z,100130.59
2022-08-22T04:18:12.866Z,100119.72
2022-08-22T04:21:16.814Z,100131.94
2022-08-22T04:24:19.143Z,100140.03
2022-08-22T04:27:10.976Z,100134.72
2022-08-22T04:29:45.829Z,100131.88
2022-08-22T04:32:27.217Z,100131.13
2022-08-22T04:35:08.230Z,100132.78
2022-08-22T04:38:09.220Z,100140.22
2022-08-22T04:41:22.312Z,100141.03
2022-08-22T04:43:59.313Z,100143.13
2022-08-22T04:46:55.891Z,100135.97
2022-08-22T04:49:37.488Z,100132.81
2022-08-22T04:52:22.755Z,100131.97
2022-08-22T04:54:59.586Z,100133.16
2022-08-22T04:58:06.686Z,100133.97
2022-08-22T05:00:54.992Z,100137.25
2022-08-22T05:03:27.078Z,100134.97
2022-08-22T05:05:55.720Z,100127.44
2022-08-22T05:08:26.569Z,100116.63
2022-08-22T05:10:54.592Z,100119.16
2022-08-22T05:13:30.310Z,100111.19
2022-08-22T05:16:04.674Z,100109.66
2022-08-22T05:18:39.999Z,100116.16
2022-08-22T05:21:11.089Z,100104.78
2022-08-22T05:23:50.861Z,100108.88
2022-08-22T05:26:21.588Z,100097.06
2022-08-22T05:28:58.089Z,100103.56
2022-08-22T05:31:33.535Z,100110.53
2022-08-22T05:34:07.030Z,100101.75
2022-08-22T05:36:55.796Z,100096.22
2022-08-22T05:39:28.051Z,100101.97
2022-08-22T05:42:00.555Z,100100.75
2022-08-22T05:44:34.434Z,100109.69
2022-08-22T05:47:03.678Z,100101.16
2022-08-22T05:49:43.010Z,100118.16
2022-08-22T05:52:24.989Z,100114.53
2022-08-22T05:55:04.973Z,100119.78
2022-08-22T05:57:42.200Z,100118.59
2022-08-22T06:00:13.228Z,100125.56
2022-08-22T06:03:03.267Z,100126.78
2022-08-22T06:05:36.130Z,100118.28
2022-08-22T06:08:25.565Z,100104.06
2022-08-22T06:10:59.289Z,100121.50
2022-08-22T06:13:32.284Z,100114.22
2022-08-22T06:16:36.056Z,100121.91
2022-08-22T06:19:04.793Z,100123.94
2022-08-22T06:21:50.252Z,100119.91
2022-08-22T06:24:26.491Z,100123.13
2022-08-22T06:29:58.828Z,100132.47
2022-08-22T06:32:58.276Z,100124.66
2022-08-22T06:35:25.424Z,100119.75
2022-08-22T06:37:57.801Z,100123.88
2022-08-22T06:40:28.343Z,100126.38
2022-08-22T06:42:57.515Z,100143.81
2022-08-22T06:45:32.521Z,100138.13
2022-08-22T06:48:05.673Z,100129.22
2022-08-22T06:50:36.755Z,100136.94
2022-08-22T06:53:07.921Z,100149.91
2022-08-22T06:55:37.920Z,100141.38
2022-08-22T06:58:16.180Z,100132.78
2022-08-22T07:00:47.565Z,100137.50
2022-08-22T07:03:40.287Z,100145.81
2022-08-22T07:06:14.503Z,100131.41
2022-08-22T07:08:42.305Z,100132.06
2022-08-22T07:11:21.824Z,100127.75
2022-08-22T07:14:02.897Z,100120.31
2022-08-22T07:16:49.880Z,100129.84
2022-08-22T07:19:37.993Z,100129.78
2022-08-22T07:22:23.480Z,100140.41
2022-08-22T07:25:11.239Z,100136.84
2022-08-22T07:28:09.042Z,100133.59
2022-08-22T07:30:57.681Z,100136.81
2022-08-22T07:33:42.335Z,100141.72
2022-08-22T07:36:25.067Z,100145.41
2022-08-22T07:39:30.065Z,100135.13
2022-08-22T07:42:15.819Z,100131.19
2022-08-22T07:44:45.605Z,100142.94
2022-08-22T07:47:26.345Z,100129.34
2022-08-22T07:50:07.432Z,100131.16
2022-08-22T07:52:45.853Z,100128.66
2022-08-22T07:55:23.253Z,100136.56
2022-08-22T07:57:56.745Z,100138.94
2022-08-22T08:00:25.191Z,100134.09
2022-08-22T08:02:56.466Z,100133.19
2022-08-22T08:05:27.603Z,100143.25
2022-08-22T08:07:56.680Z,100142.06
2022-08-22T08:10:31.445Z,100140.63
2022-08-22T08:13:06.572Z,100132.75
2022-08-22T08:15:37.381Z,100140.22
2022-08-22T08:18:10.790Z,100146.13
2022-08-22T08:20:38.117Z,100135.41
2022-08-22T08:23:09.531Z,100137.13
2022-08-22T08:25:57.641Z,100142.78
2022-08-22T08:28:38.751Z,100136.53
2022-08-22T08:31:10.811Z,100145.03
2022-08-22T08:33:44.338Z,100143.91
2022-08-22T08:36:31.303Z,100139.41
2022-08-22T08:39:04.089Z,100137.91
2022-08-22T08:41:49.204Z,100135.78
2022-08-22T08:44:30.854Z,100134.91
2022-08-22T08:47:03.483Z,100133.28
2022-08-22T08:49:50.501Z,100132.59
2022-08-22T08:52:39.828Z,100138.31
2022-08-22T08:55:21.801Z,100138.50
2022-08-22T08:58:17.809Z,100138.25
2022-08-22T09:00:44.975Z,100134.78
2022-08-22T09:03:37.486Z,100138.47
2022-08-22T09:06:16.818Z,100142.28
2022-08-22T09:09:14.743Z,100135.50
2022-08-22T09:12:12.997Z,100134.59
2022-08-22T09:15:01.344Z,100135.66
2022-08-22T09:17:31.112Z,100137.63
2022-08-22T09:20:34.693Z,100139.47
2022-08-22T09:23:33.850Z,100139.56
2022-08-22T09:26:08.401Z,100142.84
2022-08-22T09:28:56.903Z,100142.75
2022-08-22T09:31:47.433Z,100135.91
2022-08-22T09:34:47.730Z,100146.09
2022-08-22T09:37:26.560Z,100138.41
2022-08-22T09:43:08.763Z,100149.06
2022-08-22T09:45:40.644Z,100136.63
2022-08-22T09:48:23.878Z,100144.59
2022-08-22T09:51:31.647Z,100147.91
2022-08-22T09:54:21.578Z,100141.91
2022-08-22T09:56:58.598Z,100137.16
2022-08-22T09:59:34.159Z,100128.34
2022-08-22T10:02:19.570Z,100130.41
2022-08-22T10:04:58.559Z,100128.03
2022-08-22T10:07:28.072Z,100135.31
2022-08-22T10:10:10.265Z,100137.25
2022-08-22T10:12:44.849Z,100130.91
2022-08-22T10:15:52.673Z,100141.63
2022-08-22T10:18:53.847Z,100130.53
2022-08-22T10:21:42.736Z,100143.88
2022-08-22T10:24:55.647Z,100145.59
2022-08-22T10:27:41.047Z,100138.72
2022-08-22T10:30:16.326Z,100128.44
2022-08-22T10:33:12.162Z,100141.72
2022-08-22T10:35:52.080Z,100137.00
2022-08-22T10:38:46.224Z,100132.50
2022-08-22T10:41:28.815Z,100134.69
2022-08-22T10:44:22.009Z,100139.81
2022-08-22T10:47:06.018Z,100136.38
2022-08-22T10:49:35.437Z,100132.09
2022-08-22T10:52:15.258Z,100124.72
2022-08-22T10:54:58.052Z,100131.97
2022-08-22T10:57:39.043Z,100122.03
2022-08-22T11:00:27.891Z,100118.00
2022-08-22T11:03:32.130Z,100123.13
2022-08-22T11:06:03.603Z,100121.84
2022-08-22T11:08:34.779Z,100109.31
2022-08-22T11:11:09.318Z,100117.38
2022-08-22T11:13:50.394Z,100134.16
2022-08-22T11:16:48.417Z,100123.03
2022-08-22T11:19:39.040Z,100112.91
2022-08-22T11:22:21.394Z,100113.53
2022-08-22T11:25:14.348Z,100121.34
2022-08-22T11:27:56.455Z,100111.38
2022-08-22T11:30:44.263Z,100111.50
2022-08-22T11:36:36.619Z,100102.28
2022-08-22T11:39:22.304Z,100101.03
2022-08-22T11:41:52.487Z,100096.56
2022-08-22T11:44:31.305Z,100100.88
2022-08-22T11:47:07.561Z,100107.00
2022-08-22T11:49:40.464Z,100107.16
2022-08-22T11:52:20.654Z,100101.44
2022-08-22T11:55:02.461Z,100101.44
2022-08-22T11:57:32.889Z,100091.88
2022-08-22T12:00:38.786Z,100102.75
2022-08-22T12:03:26.641Z,100107.13
2022-08-22T12:06:22.347Z,100103.09
2022-08-22T12:09:08.713Z,100100.75
2022-08-22T12:11:48.684Z,100104.06
2022-08-22T12:14:18.728Z,100098.91
2022-08-22T12:17:18.942Z,100109.09
2022-08-22T12:20:17.025Z,100087.78
2022-08-22T12:22:50.673Z,100090.03
2022-08-22T12:25:37.436Z,100100.59
2022-08-22T12:28:41.575Z,100084.19
2022-08-22T12:31:11.087Z,100103.03
2022-08-22T12:33:50.351Z,100096.03
2022-08-22T12:36:57.074Z,100099.41
2022-08-22T12:39:49.984Z,100093.88
2022-08-22T12:42:22.239Z,100104.25
2022-08-22T12:45:06.976Z,100107.13
2022-08-22T12:47:52.104Z,100106.16
2022-08-22T12:50:44.119Z,100110.63
2022-08-22T12:53:39.434Z,100109.81
2022-08-22T12:57:03.679Z,100116.09
2022-08-22T12:59:46.789Z,100117.31
2022-08-22T13:02:31.759Z,100106.50
2022-08-22T13:05:09.073Z,100105.53
2022-08-22T13:07:38.535Z,100103.94
2022-08-22T13:10:39.453Z,100109.81
2022-08-22T13:13:12.753Z,100104.34
2022-08-22T13:15:53.809Z,100105.22
2022-08-22T13:18:30.623Z,100106.13
2022-08-22T13:21:02.348Z,100094.19
2022-08-22T13:23:39.808Z,100099.03
2022-08-22T13:26:31.658Z,100097.00
2022-08-22T13:32:00.591Z,100089.75
2022-08-22T13:34:39.998Z,100112.16
2022-08-22T13:37:13.389Z,100097.38
2022-08-22T13:39:45.439Z,100092.44
2022-08-22T13:42:30.181Z,100085.97
2022-08-22T13:45:02.484Z,100096.66
2022-08-22T13:47:34.466Z,100094.13
2022-08-22T13:50:07.614Z,100093.06
2022-08-22T13:52:42.072Z,100096.19
2022-08-22T13:55:19.139Z,100090.63
2022-08-22T13:58:00.699Z,100096.81
2022-08-22T14:00:48.669Z,100094.00
2022-08-22T14:03:48.798Z,100094.00
2022-08-22T14:06:43.801Z,100090.06
2022-08-22T14:09:30.689Z,100087.63
2022-08-22T14:12:21.209Z,100086.47
2022-08-22T14:15:00.368Z,100090.19
2022-08-22T14:17:38.498Z,100089.50
2022-08-22T14:20:28.331Z,100084.53
2022-08-22T14:23:07.560Z,100085.00
2022-08-22T14:25:39.215Z,100093.25
2022-08-22T14:28:32.863Z,100086.75
2022-08-22T14:31:08.584Z,100093.91
2022-08-22T14:33:40.087Z,100084.25
2022-08-22T14:36:46.208Z,100094.16
2022-08-22T14:39:42.773Z,100090.97
2022-08-22T14:42:46.516Z,100083.81
2022-08-22T14:45:25.030Z,100089.16
2022-08-22T14:48:29.762Z,100088.78
2022-08-22T14:50:56.581Z,100083.94
2022-08-22T14:53:30.601Z,100084.31
2022-08-22T14:56:00.204Z,100084.38
2022-08-22T14:58:30.205Z,100081.63
2022-08-22T15:01:07.078Z,100075.91
2022-08-22T15:03:39.389Z,100073.50
2022-08-22T15:06:57.908Z,100084.94
2022-08-22T15:09:41.548Z,100081.72
2022-08-22T15:12:27.287Z,100076.81
2022-08-22T15:14:58.399Z,100078.06
2022-08-22T15:17:38.913Z,100073.94
2022-08-22T15:20:34.047Z,100085.84
2022-08-22T15:23:10.109Z,100088.41
2022-08-22T15:25:41.271Z,100095.78
2022-08-22T15:28:20.590Z,100093.47
2022-08-22T15:31:03.743Z,100087.81
2022-08-22T15:33:37.902Z,100096.06
2022-08-22T15:36:22.142Z,100090.78
2022-08-22T15:38:56.056Z,100088.78
2022-08-22T15:41:36.748Z,100093.34
2022-08-22T15:44:31.082Z,100095.41
2022-08-22T15:47:23.708Z,100088.13
2022-08-22T15:49:56.318Z,100091.50
2022-08-22T15:52:36.095Z,100075.28
2022-08-22T15:55:18.042Z,100078.69
2022-08-22T15:58:02.606Z,100090.22
2022-08-22T16:00:32.763Z,100095.22
2022-08-22T16:03:09.215Z,100096.09
2022-08-22T16:05:55.380Z,100088.00
2022-08-22T16:08:36.707Z,100105.16
2022-08-22T16:11:03.560Z,100094.22
2022-08-22T16:13:30.366Z,100106.88
2022-08-22T16:16:17.826Z,100110.13
2022-08-22T16:18:47.496Z,100098.81
2022-08-22T16:21:23.241Z,100104.59
2022-08-22T16:23:50.203Z,100098.63
2022-08-22T16:26:30.736Z,100103.16
2022-08-22T16:29:06.899Z,100108.50
2022-08-22T16:31:39.767Z,100115.06
2022-08-22T16:34:48.529Z,100115.06
2022-08-22T16:37:17.921Z,100114.31
2022-08-22T16:40:05.522Z,100117.53
2022-08-22T16:42:51.534Z,100115.53
2022-08-22T16:45:45.562Z,100121.34
2022-08-22T16:48:17.349Z,100116.09
2022-08-22T16:50:44.222Z,100114.97
2022-08-22T16:53:30.902Z,100114.63
2022-08-22T16:56:48.888Z,100118.75
2022-08-22T16:59:38.415Z,100134.38
2022-08-22T17:02:33.538Z,100128.31
2022-08-22T17:05:09.001Z,100127.59
2022-08-22T17:07:47.146Z,100136.59
2022-08-22T17:10:52.918Z,100130.53
2022-08-22T17:13:56.788Z,100135.03
2022-08-22T17:16:56.624Z,100122.41
2022-08-22T17:19:42.003Z,100141.16
2022-08-22T17:22:31.957Z,100140.41
2022-08-22T17:25:16.956Z,100139.66
2022-08-22T17:27:48.448Z,100139.66
2022-08-22T17:30:41.534Z,100140.50
2022-08-22T17:33:33.304Z,100140.94
2022-08-22T17:36:26.717Z,100143.38
2022-08-22T17:39:18.750Z,100137.75
2022-08-22T17:41:54.729Z,100149.19
2022-08-22T17:44:32.639Z,100141.47
2022-08-22T17:47:17.174Z,100144.38
2022-08-22T17:49:45.147Z,100146.88
2022-08-22T17:52:21.584Z,100146.47
2022-08-22T17:55:02.174Z,100140.78
2022-08-22T17:57:52.433Z,100151.44
2022-08-22T18:00:30.839Z,100142.06
2022-08-22T18:03:22.172Z,100152.72
2022-08-22T18:06:10.139Z,100148.69
2022-08-22T18:11:50.118Z,100145.09
2022-08-22T18:14:36.839Z,100151.13
2022-08-22T18:17:18.000Z,100153.97
2022-08-22T18:20:37.571Z,100159.28
2022-08-22T18:23:21.480Z,100148.72
2022-08-22T18:26:23.992Z,100157.75
2022-08-22T18:28:53.578Z,100155.34
2022-08-22T18:31:29.146Z,100165.63
2022-08-22T18:34:03.183Z,100151.34
2022-08-22T18:36:38.240Z,100155.81
2022-08-22T18:39:16.949Z,100161.16
2022-08-22T18:41:57.245Z,100152.09
2022-08-22T18:44:28.810Z,100156.59
2022-08-22T18:47:20.457Z,100153.75
2022-08-22T18:49:54.816Z,100146.41
2022-08-22T18:52:34.475Z,100152.16
2022-08-22T18:55:19.442Z,100150.59
2022-08-22T18:57:56.261Z,100145.72
2022-08-22T19:00:44.166Z,100153.91
2022-08-22T19:03:21.024Z,100151.50
2022-08-22T19:06:15.246Z,100155.59
2022-08-22T19:08:52.986Z,100153.19
2022-08-22T19:11:37.122Z,100165.41
2022-08-22T19:14:22.559Z,100155.66
2022-08-22T19:17:15.045Z,100154.03
2022-08-22T19:20:21.627Z,100158.13
2022-08-22T19:22:50.918Z,100156.97
2022-08-22T19:25:26.262Z,100164.25
2022-08-22T19:28:11.504Z,100160.16
2022-08-22T19:30:49.990Z,100158.97
2022-08-22T19:33:19.707Z,100166.31
2022-08-22T19:35:52.415Z,100172.00
2022-08-22T19:38:57.476Z,100165.09
2022-08-22T19:41:41.532Z,100174.91
2022-08-22T19:44:33.729Z,100172.06
2022-08-22T19:47:01.465Z,100168.44
2022-08-22T19:49:47.886Z,100166.03
2022-08-22T19:52:36.520Z,100167.66
2022-08-22T19:55:44.384Z,100167.28
2022-08-22T19:58:32.571Z,100167.72
2022-08-22T20:01:21.721Z,100179.94
2022-08-22T20:03:58.317Z,100173.84
2022-08-22T20:06:55.131Z,100168.97
2022-08-22T20:09:44.055Z,100169.38
2022-08-22T20:12:32.251Z,100171.03
2022-08-22T20:15:16.648Z,100163.69
2022-08-22T20:17:43.847Z,100169.38
2022-08-22T20:20:23.968Z,100170.56
2022-08-22T20:23:03.006Z,100168.97
2022-08-22T20:25:42.177Z,100176.25
2022-08-22T20:28:28.342Z,100184.03
2022-08-22T20:30:59.539Z,100185.22
2022-08-22T20:33:39.715Z,100192.59
2022-08-22T20:36:21.177Z,100198.28
2022-08-22T20:39:00.224Z,100187.69
2022-08-22T20:41:35.778Z,100193.41
2022-08-22T20:44:06.963Z,100199.91
2022-08-22T20:46:53.313Z,100197.50
2022-08-22T20:49:24.765Z,100202.81
2022-08-22T20:52:03.807Z,100200.03
2022-08-22T20:54:40.271Z,100206.13
2022-08-22T20:57:17.279Z,100201.25
2022-08-22T21:00:14.957Z,100206.97
2022-08-22T21:02:55.558Z,100205.78
2022-08-22T21:05:26.002Z,100216.38
2022-08-22T21:08:12.810Z,100211.50
2022-08-22T21:11:14.523Z,100210.31
2022-08-22T21:13:41.343Z,100210.72
2022-08-22T21:16:13.096Z,100214.34
2022-08-22T21:18:45.824Z,100198.94
2022-08-22T21:21:19.604Z,100222.09
2022-08-22T21:23:57.400Z,100231.06
2022-08-22T21:26:30.218Z,100230.28
2022-08-22T21:29:00.977Z,100231.88
2022-08-22T21:31:38.708Z,100232.69
2022-08-22T21:34:06.016Z,100229.84
2022-08-22T21:36:38.187Z,100231.09
2022-08-22T21:39:23.264Z,100233.53
2022-08-22T21:42:08.906Z,100237.59
2022-08-22T21:44:40.621Z,100240.03
2022-08-22T21:47:31.240Z,100237.59
2022-08-22T21:50:13.725Z,100240.88
2022-08-22T21:52:53.873Z,100247.38
2022-08-22T21:55:44.490Z,100249.81
2022-08-22T21:58:36.309Z,100249.41
2022-08-22T22:01:22.403Z,100264.03
2022-08-22T22:03:52.202Z,100261.19
2022-08-22T22:06:19.683Z,100259.56
2022-08-22T22:08:46.533Z,100260.38
2022-08-22T22:11:15.417Z,100271.75
2022-08-22T22:13:43.302Z,100264.03
2022-08-22T22:16:12.288Z,100268.53
2022-08-22T22:18:39.918Z,100262.81
2022-08-22T22:21:08.028Z,100268.94
2022-08-22T22:23:34.867Z,100271.78
2022-08-22T22:26:04.865Z,100273.38
2022-08-22T22:28:36.833Z,100266.09
2022-08-22T22:31:04.692Z,100274.19
2022-08-22T22:33:36.897Z,100266.88
2022-08-22T22:36:08.106Z,100267.69
2022-08-22T22:38:35.367Z,100267.72
2022-08-22T22:41:02.122Z,100274.19
2022-08-22T22:43:29.035Z,100268.13
2022-08-22T22:45:56.572Z,100272.16
2022-08-22T22:48:24.719Z,100264.03
2022-08-22T22:50:53.064Z,100267.28
2022-08-22T22:53:21.380Z,100273.00
2022-08-22T22:56:00.656Z,100267.69
2022-08-22T22:58:28.517Z,100275.00
2022-08-22T23:00:58.344Z,100274.59
2022-08-22T23:03:26.854Z,100268.50
2022-08-22T23:05:53.751Z,100270.94
2022-08-22T23:08:20.543Z,100277.03
2022-08-22T23:10:47.388Z,100273.34
2022-08-22T23:13:14.470Z,100264.41
2022-08-22T23:15:41.564Z,100269.28
2022-08-22T23:18:08.452Z,100267.25
2022-08-22T23:20:35.326Z,100262.78
2022-08-22T23:23:02.113Z,100264.81
2022-08-22T23:25:28.958Z,100271.69
2022-08-22T23:27:55.855Z,100273.75
2022-08-22T23:30:23.428Z,100266.81
2022-08-22T23:32:50.172Z,100270.88
2022-08-22T23:35:17.104Z,100279.00
2022-08-22T23:37:44.236Z,100286.31
2022-08-22T23:40:11.655Z,100276.56
2022-08-22T23:42:38.416Z,100287.13
2022-08-22T23:45:05.875Z,100279.00
2022-08-22T23:47:32.610Z,100282.25
2022-08-22T23:49:59.354Z,100290.75
2022-08-22T23:52:33.164Z,100287.91
2022-08-22T23:54:59.897Z,100289.13
2022-08-22T23:57:27.580Z,100288.72
2022-08-22T23:59:57.593Z,100288.72
